Red Garnet — 9HA3899 — position and weather

sailwx.info

Track history (hours):
 
Tides and Currents Weather Stations Pressure Air Temp Water Temp Dewpoint Dewpoint Depression Visibility Wind Speed Wind Dir Waves Ship Positions

Red Garnet

Last reported at 2018-Jun-23 16:25 UTC. Time now 2018-Jun-24 07:17 UTC.
Position N 36°46' E 012°47'.

Length 183 m; draft 9.8 m.

Type: Ship (hazmat cat A). MMSI: 256391000.

Date/timePositionNaut miles runAvg speedWind from/ knotsBaromVisibWave heightAir tempDewpointWater temp
2018-Jun-23 16:25N 36°46' E 012°47'512.6
2018-Jun-23 16:00N 36°44' E 012°53'612.7
2018-Jun-23 15:30N 36°41' E 013°00'612.7
2018-Jun-23 15:00N 36°38' E 013°08'612.6
2018-Jun-23 14:30N 36°36' E 013°15'612.5
2018-Jun-23 14:00N 36°33' E 013°22'612.4
2018-Jun-23 13:30N 36°31' E 013°29'612.7
2018-Jun-23 13:00N 36°28' E 013°36'612.7
2018-Jun-23 12:30N 36°25' E 013°43'612.6
2018-Jun-23 12:00N 36°23' E 013°50'612.2
2018-Jun-23 11:30N 36°20' E 013°57'712.4
2018-Jun-23 10:58N 36°18' E 014°05'612.5
2018-Jun-23 10:30N 36°15' E 014°11'612.4
2018-Jun-23 10:00N 36°13' E 014°18'612.3
2018-Jun-23 09:30N 36°10' E 014°25'612.0
2018-Jun-23 09:00N 36°06' E 014°31'611.6
2018-Jun-23 08:30N 36°02' E 014°36'5 9.6
2018-Jun-23 08:00N 35°58' E 014°38'1 1.6
2018-Jun-23 07:30N 35°57' E 014°38'0 1.0
2018-Jun-23 07:00N 35°57' E 014°38'1 2.4
2018-Jun-23 06:25N 35°58' E 014°39'4 6.7
2018-Jun-23 05:47N 35°59' E 014°44'6 5.0
2018-Jun-23 04:31N 35°60' E 014°52'0 0.0
2018-Jun-23 04:17N 35°60' E 014°52'0 0.0
2018-Jun-23 04:00N 35°60' E 014°52'0 0.0
2018-Jun-23 03:30N 35°60' E 014°52'0 0.0
2018-Jun-23 03:00N 35°60' E 014°52'0 0.0
2018-Jun-23 02:30N 35°60' E 014°52'0 0.0
2018-Jun-23 02:00N 35°60' E 014°52'0 0.0
2018-Jun-23 01:29N 35°60' E 014°52'0 0.0
2018-Jun-23 01:00N 35°60' E 014°52'0 0.0
2018-Jun-23 00:29N 35°60' E 014°52'0 0.0
2018-Jun-22 23:19N 35°60' E 014°52'0 0.0
2018-Jun-22 22:59N 35°60' E 014°52'0 0.0
2018-Jun-22 22:30N 35°60' E 014°52'0 0.1
2018-Jun-22 21:59N 35°60' E 014°52'0 0.0
2018-Jun-22 21:26N 35°60' E 014°52'0 0.0
2018-Jun-22 20:59N 35°60' E 014°52'0 0.0
2018-Jun-22 20:30N 35°60' E 014°52'0 0.0
2018-Jun-22 20:00N 35°60' E 014°52'0 0.0
2018-Jun-22 19:30N 35°60' E 014°52'0 0.1
2018-Jun-22 19:00N 35°60' E 014°52'0 0.0
2018-Jun-22 18:30N 35°60' E 014°52'0 0.0
2018-Jun-22 18:00N 35°60' E 014°52'0 0.0
2018-Jun-22 17:30N 35°60' E 014°52'0 0.0
2018-Jun-22 17:00N 35°60' E 014°52'0 0.0
2018-Jun-22 16:30N 35°60' E 014°52'0 0.1
2018-Jun-22 16:00N 35°60' E 014°52'0 0.0
2018-Jun-22 15:30N 35°60' E 014°52'0 0.0
2018-Jun-22 15:00N 35°60' E 014°52'0 0.0
2018-Jun-22 14:30N 35°60' E 014°52'0 0.0
2018-Jun-22 14:00N 35°60' E 014°52'0 0.0
2018-Jun-22 13:30N 35°60' E 014°52'0 0.0
2018-Jun-22 12:56N 35°60' E 014°52'0 0.0
2018-Jun-22 12:29N 35°60' E 014°52'0 0.0
2018-Jun-22 11:57N 35°60' E 014°52'0 0.1
2018-Jun-22 11:24N 35°60' E 014°52'0 0.1
2018-Jun-22 10:49N 35°60' E 014°52'0 0.1
2018-Jun-22 10:29N 35°60' E 014°52'0 0.0
2018-Jun-22 09:58N 35°60' E 014°52'0 0.0
2018-Jun-22 09:25N 35°60' E 014°52'0 0.1
2018-Jun-22 09:00N 35°60' E 014°52'0 0.2
2018-Jun-22 08:29N 35°60' E 014°52'0 0.6
2018-Jun-22 07:57N 36°00' E 014°52'1 2.0
2018-Jun-22 07:29N 36°01' E 014°53'3 4.7
2018-Jun-22 06:56N 36°03' E 014°55'2 5.0
2018-Jun-22 06:30N 36°05' E 014°57'2 3.7
2018-Jun-22 05:53N 36°06' E 014°58'2 3.8
2018-Jun-22 05:30N 36°06' E 014°56'3 5.2
2018-Jun-22 04:53N 36°04' E 014°54'2 5.6
2018-Jun-22 04:27N 36°02' E 014°52'2 0.7
2018-Jun-22 01:41N 35°60' E 014°51'0 0.0
2018-Jun-22 00:26N 35°60' E 014°51'0 0.0
2018-Jun-21 23:50N 35°60' E 014°51'0 0.0
2018-Jun-21 23:29N 35°60' E 014°51'0 0.0
2018-Jun-21 22:59N 35°60' E 014°51'0 0.0
2018-Jun-21 22:26N 35°60' E 014°51'0 0.2
2018-Jun-21 21:59N 35°60' E 014°51'0 0.1
2018-Jun-21 20:44N 35°60' E 014°51'1 3.2
2018-Jun-21 20:30N 35°60' E 014°50'4 6.5
2018-Jun-21 19:57N 36°02' E 014°46'611.4
2018-Jun-21 19:25N 36°06' E 014°41'613.0
2018-Jun-21 18:59N 36°10' E 014°35'713.4
2018-Jun-21 18:27N 36°14' E 014°28'613.8
2018-Jun-21 18:00N 36°17' E 014°21'813.8
2018-Jun-21 17:27N 36°20' E 014°13'613.0
2018-Jun-21 17:00N 36°20' E 014°06'713.3
2018-Jun-21 16:30N 36°23' E 013°58'713.3
2018-Jun-21 16:00N 36°25' E 013°50'813.4
2018-Jun-21 15:23N 36°29' E 013°41'513.4
2018-Jun-21 14:59N 36°31' E 013°35'1513.3
2018-Jun-21 13:51N 36°36' E 013°17'513.2
2018-Jun-21 13:30N 36°37' E 013°12'713.3
2018-Jun-21 12:57N 36°40' E 013°03'3113.3
2018-Jun-21 10:35N 36°51' E 012°26'112.6
2018-Jun-21 10:30N 36°51' E 012°25'51212.5
2018-Jun-19 17:24N 36°53' E 001°45'12012.5
2018-Jun-19 07:50N 36°27' W 000°41'  
2018-Jun-13 23:46N 36°04' W 005°11'313.1
2018-Jun-13 23:30N 36°04' W 005°15'2 4.1
2018-Jun-13 23:00N 36°06' W 005°17'3 6.7
2018-Jun-13 22:30N 36°06' W 005°13'611.4
2018-Jun-13 22:00N 36°09' W 005°07'  
Track history (hours):
 
Tides and Currents Weather Stations Pressure Air Temp Water Temp Dewpoint Dewpoint Depression Visibility Wind Speed Wind Dir Waves Ship Positions

Red Garnet

Last reported at 2018-Jun-23 16:25 UTC. Time now 2018-Jun-24 07:17 UTC.
Position N 36°46' E 012°47'.

Length 183 m; draft 9.8 m.

Type: Ship (hazmat cat A). MMSI: 256391000.

Date/timePositionNaut miles runAvg speedWind from/ knotsBaromVisibWave heightAir tempDewpointWater temp
2018-Jun-23 16:25N 36°46' E 012°47'512.6
2018-Jun-23 16:00N 36°44' E 012°53'612.7
2018-Jun-23 15:30N 36°41' E 013°00'612.7
2018-Jun-23 15:00N 36°38' E 013°08'612.6
2018-Jun-23 14:30N 36°36' E 013°15'612.5
2018-Jun-23 14:00N 36°33' E 013°22'612.4
2018-Jun-23 13:30N 36°31' E 013°29'612.7
2018-Jun-23 13:00N 36°28' E 013°36'612.7
2018-Jun-23 12:30N 36°25' E 013°43'612.6
2018-Jun-23 12:00N 36°23' E 013°50'612.2
2018-Jun-23 11:30N 36°20' E 013°57'712.4
2018-Jun-23 10:58N 36°18' E 014°05'612.5
2018-Jun-23 10:30N 36°15' E 014°11'612.4
2018-Jun-23 10:00N 36°13' E 014°18'612.3
2018-Jun-23 09:30N 36°10' E 014°25'612.0
2018-Jun-23 09:00N 36°06' E 014°31'611.6
2018-Jun-23 08:30N 36°02' E 014°36'5 9.6
2018-Jun-23 08:00N 35°58' E 014°38'1 1.6
2018-Jun-23 07:30N 35°57' E 014°38'0 1.0
2018-Jun-23 07:00N 35°57' E 014°38'1 2.4
2018-Jun-23 06:25N 35°58' E 014°39'4 6.7
2018-Jun-23 05:47N 35°59' E 014°44'6 5.0
2018-Jun-23 04:31N 35°60' E 014°52'0 0.0
2018-Jun-23 04:17N 35°60' E 014°52'0 0.0
2018-Jun-23 04:00N 35°60' E 014°52'0 0.0
2018-Jun-23 03:30N 35°60' E 014°52'0 0.0
2018-Jun-23 03:00N 35°60' E 014°52'0 0.0
2018-Jun-23 02:30N 35°60' E 014°52'0 0.0
2018-Jun-23 02:00N 35°60' E 014°52'0 0.0
2018-Jun-23 01:29N 35°60' E 014°52'0 0.0
2018-Jun-23 01:00N 35°60' E 014°52'0 0.0
2018-Jun-23 00:29N 35°60' E 014°52'0 0.0
2018-Jun-22 23:19N 35°60' E 014°52'0 0.0
2018-Jun-22 22:59N 35°60' E 014°52'0 0.0
2018-Jun-22 22:30N 35°60' E 014°52'0 0.1
2018-Jun-22 21:59N 35°60' E 014°52'0 0.0
2018-Jun-22 21:26N 35°60' E 014°52'0 0.0
2018-Jun-22 20:59N 35°60' E 014°52'0 0.0
2018-Jun-22 20:30N 35°60' E 014°52'0 0.0
2018-Jun-22 20:00N 35°60' E 014°52'0 0.0
2018-Jun-22 19:30N 35°60' E 014°52'0 0.1
2018-Jun-22 19:00N 35°60' E 014°52'0 0.0
2018-Jun-22 18:30N 35°60' E 014°52'0 0.0
2018-Jun-22 18:00N 35°60' E 014°52'0 0.0
2018-Jun-22 17:30N 35°60' E 014°52'0 0.0
2018-Jun-22 17:00N 35°60' E 014°52'0 0.0
2018-Jun-22 16:30N 35°60' E 014°52'0 0.1
2018-Jun-22 16:00N 35°60' E 014°52'0 0.0
2018-Jun-22 15:30N 35°60' E 014°52'0 0.0
2018-Jun-22 15:00N 35°60' E 014°52'0 0.0
2018-Jun-22 14:30N 35°60' E 014°52'0 0.0
2018-Jun-22 14:00N 35°60' E 014°52'0 0.0
2018-Jun-22 13:30N 35°60' E 014°52'0 0.0
2018-Jun-22 12:56N 35°60' E 014°52'0 0.0
2018-Jun-22 12:29N 35°60' E 014°52'0 0.0
2018-Jun-22 11:57N 35°60' E 014°52'0 0.1
2018-Jun-22 11:24N 35°60' E 014°52'0 0.1
2018-Jun-22 10:49N 35°60' E 014°52'0 0.1
2018-Jun-22 10:29N 35°60' E 014°52'0 0.0
2018-Jun-22 09:58N 35°60' E 014°52'0 0.0
2018-Jun-22 09:25N 35°60' E 014°52'0 0.1
2018-Jun-22 09:00N 35°60' E 014°52'0 0.2
2018-Jun-22 08:29N 35°60' E 014°52'0 0.6
2018-Jun-22 07:57N 36°00' E 014°52'1 2.0
2018-Jun-22 07:29N 36°01' E 014°53'3 4.7
2018-Jun-22 06:56N 36°03' E 014°55'2 5.0
2018-Jun-22 06:30N 36°05' E 014°57'2 3.7
2018-Jun-22 05:53N 36°06' E 014°58'2 3.8
2018-Jun-22 05:30N 36°06' E 014°56'3 5.2
2018-Jun-22 04:53N 36°04' E 014°54'2 5.6
2018-Jun-22 04:27N 36°02' E 014°52'2 0.7
2018-Jun-22 01:41N 35°60' E 014°51'0 0.0
2018-Jun-22 00:26N 35°60' E 014°51'0 0.0
2018-Jun-21 23:50N 35°60' E 014°51'0 0.0
2018-Jun-21 23:29N 35°60' E 014°51'0 0.0
2018-Jun-21 22:59N 35°60' E 014°51'0 0.0
2018-Jun-21 22:26N 35°60' E 014°51'0 0.2
2018-Jun-21 21:59N 35°60' E 014°51'0 0.1
2018-Jun-21 20:44N 35°60' E 014°51'1 3.2
2018-Jun-21 20:30N 35°60' E 014°50'4 6.5
2018-Jun-21 19:57N 36°02' E 014°46'611.4
2018-Jun-21 19:25N 36°06' E 014°41'613.0
2018-Jun-21 18:59N 36°10' E 014°35'713.4
2018-Jun-21 18:27N 36°14' E 014°28'613.8
2018-Jun-21 18:00N 36°17' E 014°21'813.8
2018-Jun-21 17:27N 36°20' E 014°13'613.0
2018-Jun-21 17:00N 36°20' E 014°06'713.3
2018-Jun-21 16:30N 36°23' E 013°58'713.3
2018-Jun-21 16:00N 36°25' E 013°50'813.4
2018-Jun-21 15:23N 36°29' E 013°41'513.4
2018-Jun-21 14:59N 36°31' E 013°35'1513.3
2018-Jun-21 13:51N 36°36' E 013°17'513.2
2018-Jun-21 13:30N 36°37' E 013°12'713.3
2018-Jun-21 12:57N 36°40' E 013°03'3113.3
2018-Jun-21 10:35N 36°51' E 012°26'112.6
2018-Jun-21 10:30N 36°51' E 012°25'51212.5
2018-Jun-19 17:24N 36°53' E 001°45'12012.5
2018-Jun-19 07:50N 36°27' W 000°41'  
2018-Jun-13 23:46N 36°04' W 005°11'313.1
2018-Jun-13 23:30N 36°04' W 005°15'2 4.1
2018-Jun-13 23:00N 36°06' W 005°17'3 6.7
2018-Jun-13 22:30N 36°06' W 005°13'611.4
2018-Jun-13 22:00N 36°09' W 005°07'  

Dump ship's entire track history